Time;durP1;ratioP1;P1;durP2;ratioP2;P2;SDS_P1;SDS_P2;PMS_P1;PMS_P2;Temp;Humidity;BMP_temperature;BMP_pressure;BME280_temperature;BME280_humidity;BME280_pressure;Samples;Min_cycle;Max_cycle;Signal;HPM_P1;HPM_P2
2021/10/23 00:01:06;;;;;;;7.63;4.47;;;;;;;;;;4970839;28;20189;-61
2021/10/23 00:03:32;;;;;;;6.07;3.90;;;;;;;;;;4982983;28;20267;-62
2021/10/23 00:05:58;;;;;;;5.80;4.07;;;;;;;;;;4975181;28;20599;-63
2021/10/23 00:08:24;;;;;;;8.73;4.03;;;;;;;;;;4964220;28;20191;-61
2021/10/23 00:10:50;;;;;;;7.47;3.70;;;;;;;;;;4966006;28;20183;-64
2021/10/23 00:13:16;;;;;;;5.50;4.43;;;;;;;;;;4958362;28;20180;-62
2021/10/23 00:15:42;;;;;;;5.33;3.43;;;;;;;;;;4971102;28;20622;-61
2021/10/23 00:18:09;;;;;;;6.93;4.20;;;;;;;;;;4985013;28;20199;-63
2021/10/23 00:20:35;;;;;;;11.10;5.00;;;;;;;;;;4987624;28;20175;-62
2021/10/23 00:23:01;;;;;;;7.70;3.97;;;;;;;;;;4959225;28;20665;-62
2021/10/23 00:25:33;;;;;;;4.73;3.90;;;;;;;;;;4976124;28;20205;-62
2021/10/23 00:27:59;;;;;;;3.83;3.43;;;;;;;;;;4969059;28;20183;-63
2021/10/23 00:30:25;;;;;;;7.63;4.03;;;;;;;;;;4983909;28;20202;-61
2021/10/23 00:32:51;;;;;;;4.60;3.77;;;;;;;;;;4987528;28;20313;-62
2021/10/23 00:35:18;;;;;;;5.07;3.80;;;;;;;;;;4973596;28;20283;-62
2021/10/23 00:37:44;;;;;;;5.87;3.87;;;;;;;;;;5000884;28;20202;-63
2021/10/23 00:40:10;;;;;;;6.53;4.20;;;;;;;;;;4998405;28;20638;-62
2021/10/23 00:42:37;;;;;;;6.33;3.63;;;;;;;;;;4968677;28;20695;-62
2021/10/23 00:45:04;;;;;;;9.43;4.17;;;;;;;;;;4967397;28;20283;-62
2021/10/23 00:47:30;;;;;;;5.57;4.00;;;;;;;;;;4986359;28;20176;-63
2021/10/23 00:49:56;;;;;;;5.53;3.70;;;;;;;;;;4970054;28;20195;-63
2021/10/23 00:52:23;;;;;;;7.53;4.33;;;;;;;;;;4975538;28;20226;-62
2021/10/23 00:54:50;;;;;;;6.80;4.33;;;;;;;;;;4969648;28;20309;-63
2021/10/23 00:57:16;;;;;;;6.27;4.23;;;;;;;;;;4960647;28;20258;-63
2021/10/23 00:59:43;;;;;;;8.57;4.50;;;;;;;;;;4981535;28;20626;-62
2021/10/23 01:02:09;;;;;;;6.30;4.40;;;;;;;;;;4967276;28;20185;-63
2021/10/23 01:04:35;;;;;;;9.23;4.87;;;;;;;;;;4960232;28;20238;-63
2021/10/23 01:07:02;;;;;;;6.83;4.30;;;;;;;;;;4967271;28;20202;-62
2021/10/23 01:09:28;;;;;;;5.77;4.70;;;;;;;;;;4983424;28;20179;-62
2021/10/23 01:11:54;;;;;;;7.83;5.10;;;;;;;;;;4967565;28;20194;-64
2021/10/23 01:14:25;;;;;;;5.50;4.63;;;;;;;;;;4995902;28;20191;-62
2021/10/23 01:16:52;;;;;;;6.53;5.43;;;;;;;;;;4958226;28;20257;-63
2021/10/23 01:19:18;;;;;;;8.37;5.40;;;;;;;;;;4970803;28;20180;-62
2021/10/23 01:21:46;;;;;;;10.27;5.27;;;;;;;;;;4976053;28;20175;-64
2021/10/23 01:24:12;;;;;;;6.70;4.23;;;;;;;;;;4952378;28;20207;-64
2021/10/23 01:26:39;;;;;;;8.23;4.70;;;;;;;;;;4962853;28;20179;-63
2021/10/23 01:29:06;;;;;;;4.70;4.20;;;;;;;;;;4975398;28;20618;-64
2021/10/23 01:31:32;;;;;;;6.67;5.00;;;;;;;;;;4980974;28;20318;-63
2021/10/23 01:33:59;;;;;;;9.57;4.63;;;;;;;;;;4946278;28;20171;-63
2021/10/23 01:36:25;;;;;;;7.00;4.80;;;;;;;;;;4962957;28;20199;-63
2021/10/23 01:38:51;;;;;;;5.83;4.17;;;;;;;;;;4950932;28;20206;-63
2021/10/23 01:41:18;;;;;;;8.87;4.97;;;;;;;;;;4946386;28;20246;-62
2021/10/23 01:43:44;;;;;;;8.27;5.63;;;;;;;;;;4957654;28;20657;-63
2021/10/23 01:46:10;;;;;;;5.20;4.70;;;;;;;;;;4938348;28;20295;-64
2021/10/23 01:48:37;;;;;;;7.10;4.50;;;;;;;;;;4951177;28;20187;-64
2021/10/23 01:51:04;;;;;;;8.43;5.13;;;;;;;;;;4965734;28;20256;-64
2021/10/23 01:53:33;;;;;;;8.77;5.10;;;;;;;;;;4979064;28;20189;-63
2021/10/23 01:56:03;;;;;;;6.77;4.93;;;;;;;;;;4940607;28;20188;-64
2021/10/23 01:58:30;;;;;;;9.17;5.70;;;;;;;;;;4937876;28;20204;-63
2021/10/23 02:00:56;;;;;;;7.70;4.87;;;;;;;;;;4964370;28;20665;-62
2021/10/23 02:03:22;;;;;;;12.07;6.73;;;;;;;;;;4969318;28;20259;-63
2021/10/23 02:05:48;;;;;;;10.23;5.73;;;;;;;;;;4965293;28;20263;-63
2021/10/23 02:08:14;;;;;;;8.80;6.10;;;;;;;;;;4976482;28;20666;-63
2021/10/23 02:10:40;;;;;;;8.13;4.93;;;;;;;;;;4950470;28;20601;-63
2021/10/23 02:13:06;;;;;;;8.53;5.53;;;;;;;;;;4980602;28;20245;-63
2021/10/23 02:15:35;;;;;;;7.73;4.90;;;;;;;;;;4938294;28;20187;-62
2021/10/23 02:18:01;;;;;;;8.90;5.43;;;;;;;;;;4954935;28;20207;-63
2021/10/23 02:20:33;;;;;;;8.00;5.23;;;;;;;;;;4966937;28;20179;-62
2021/10/23 02:22:59;;;;;;;7.27;5.37;;;;;;;;;;4978476;28;20179;-64
2021/10/23 02:25:25;;;;;;;7.17;5.73;;;;;;;;;;4971651;28;20589;-63
2021/10/23 02:27:51;;;;;;;7.47;5.50;;;;;;;;;;4966363;28;20210;-62
2021/10/23 02:30:17;;;;;;;7.77;4.93;;;;;;;;;;4965511;28;20214;-63
2021/10/23 02:32:43;;;;;;;7.07;5.40;;;;;;;;;;4995082;28;20641;-62
2021/10/23 02:35:10;;;;;;;7.50;6.37;;;;;;;;;;4977424;28;20615;-62
2021/10/23 02:37:39;;;;;;;5.90;5.30;;;;;;;;;;4985425;28;20661;-64
2021/10/23 02:40:05;;;;;;;6.20;5.20;;;;;;;;;;4988736;28;20641;-62
2021/10/23 02:42:31;;;;;;;6.23;4.90;;;;;;;;;;4969247;28;20187;-62
2021/10/23 02:44:57;;;;;;;8.23;5.23;;;;;;;;;;4986715;28;20590;-63
2021/10/23 02:47:23;;;;;;;9.47;5.83;;;;;;;;;;4982804;28;20191;-62
2021/10/23 02:49:50;;;;;;;9.10;5.50;;;;;;;;;;4954788;28;20211;-63
2021/10/23 02:52:16;;;;;;;7.27;5.13;;;;;;;;;;4968302;28;20187;-64
2021/10/23 02:54:42;;;;;;;6.03;4.53;;;;;;;;;;4965058;28;20183;-62
2021/10/23 02:57:08;;;;;;;5.67;4.90;;;;;;;;;;4985429;28;20195;-62
2021/10/23 02:59:34;;;;;;;6.93;5.10;;;;;;;;;;4993345;28;20176;-63
2021/10/23 03:02:06;;;;;;;9.47;5.83;;;;;;;;;;4980880;28;20642;-62
2021/10/23 03:04:32;;;;;;;5.63;4.53;;;;;;;;;;4954801;28;20215;-63
2021/10/23 03:06:58;;;;;;;7.57;4.90;;;;;;;;;;4989118;28;20657;-63
2021/10/23 03:09:24;;;;;;;5.97;5.27;;;;;;;;;;4961004;28;20183;-63
2021/10/23 03:11:50;;;;;;;5.90;4.63;;;;;;;;;;4989731;28;20555;-62
2021/10/23 03:14:16;;;;;;;7.97;6.00;;;;;;;;;;4969299;28;21063;-63
2021/10/23 03:16:42;;;;;;;10.97;9.97;;;;;;;;;;4979140;28;20171;-62
2021/10/23 03:19:09;;;;;;;5.93;5.20;;;;;;;;;;4954262;28;20190;-62
2021/10/23 03:21:35;;;;;;;9.20;5.23;;;;;;;;;;4969261;28;20696;-62
2021/10/23 03:24:01;;;;;;;5.53;4.93;;;;;;;;;;4981635;28;20518;-62
2021/10/23 03:26:27;;;;;;;6.40;5.57;;;;;;;;;;4961829;28;20528;-63
2021/10/23 03:28:53;;;;;;;6.07;5.07;;;;;;;;;;4957310;28;20176;-62
2021/10/23 03:31:19;;;;;;;6.73;6.00;;;;;;;;;;4977072;28;20215;-62
2021/10/23 03:33:48;;;;;;;7.33;5.57;;;;;;;;;;4947715;28;20184;-62
2021/10/23 03:36:15;;;;;;;6.27;5.67;;;;;;;;;;4974994;28;20516;-61
2021/10/23 03:38:41;;;;;;;7.00;5.23;;;;;;;;;;4958193;28;20319;-62
2021/10/23 03:41:08;;;;;;;7.60;5.40;;;;;;;;;;4969143;28;20183;-64
2021/10/23 03:43:34;;;;;;;6.00;5.33;;;;;;;;;;4970919;28;20180;-61
2021/10/23 03:46:01;;;;;;;6.93;5.37;;;;;;;;;;4951184;28;20256;-61
2021/10/23 03:48:27;;;;;;;5.83;4.97;;;;;;;;;;4949032;28;20242;-62
2021/10/23 03:50:53;;;;;;;7.27;6.20;;;;;;;;;;4965957;28;20325;-61
2021/10/23 03:53:19;;;;;;;6.60;5.33;;;;;;;;;;4942024;28;20180;-62
2021/10/23 03:55:45;;;;;;;7.43;5.73;;;;;;;;;;4939349;28;20175;-61
2021/10/23 03:58:11;;;;;;;6.10;5.37;;;;;;;;;;4949094;28;20207;-62
2021/10/23 04:00:38;;;;;;;7.10;6.40;;;;;;;;;;4941227;28;20546;-61
2021/10/23 04:03:17;;;;;;;6.47;5.63;;;;;;;;;;4945381;28;20188;-61
2021/10/23 04:05:44;;;;;;;5.43;4.90;;;;;;;;;;4945888;28;20295;-61
2021/10/23 04:08:10;;;;;;;7.13;6.43;;;;;;;;;;4957761;28;20176;-61
2021/10/23 04:10:36;;;;;;;5.77;4.87;;;;;;;;;;4963544;28;20176;-62
2021/10/23 04:13:02;;;;;;;6.73;5.23;;;;;;;;;;4975945;28;20218;-61
2021/10/23 04:15:32;;;;;;;6.23;5.10;;;;;;;;;;4954440;28;20669;-62
2021/10/23 04:17:59;;;;;;;7.60;6.80;;;;;;;;;;4959962;28;20240;-62
2021/10/23 04:20:25;;;;;;;5.57;4.97;;;;;;;;;;4977487;28;20668;-61
2021/10/23 04:22:51;;;;;;;5.97;5.37;;;;;;;;;;4959387;28;20177;-60
2021/10/23 04:25:18;;;;;;;7.27;6.60;;;;;;;;;;4955345;28;20184;-61
2021/10/23 04:27:44;;;;;;;7.20;5.53;;;;;;;;;;4946584;28;20188;-61
2021/10/23 04:30:10;;;;;;;5.37;4.87;;;;;;;;;;4944993;29;20714;-62
2021/10/23 04:32:40;;;;;;;7.67;5.93;;;;;;;;;;4973216;28;20322;-60
2021/10/23 04:35:12;;;;;;;5.83;4.83;;;;;;;;;;4978702;28;20179;-60
2021/10/23 04:37:40;;;;;;;5.43;4.90;;;;;;;;;;4975721;28;20706;-63
2021/10/23 04:40:07;;;;;;;6.57;5.45;;;;;;;;;;4979194;28;20971;-61
2021/10/23 04:42:33;;;;;;;5.57;5.03;;;;;;;;;;4984693;28;20259;-63
2021/10/23 04:45:00;;;;;;;7.10;5.40;;;;;;;;;;4970506;28;20192;-61
2021/10/23 04:47:26;;;;;;;6.47;5.20;;;;;;;;;;4981025;28;20190;-61
2021/10/23 04:49:52;;;;;;;6.17;5.40;;;;;;;;;;4985884;28;20270;-60
2021/10/23 04:52:18;;;;;;;6.20;5.60;;;;;;;;;;4990569;28;20254;-61
2021/10/23 04:54:44;;;;;;;7.90;5.00;;;;;;;;;;4979814;28;20198;-61
2021/10/23 04:57:14;;;;;;;5.77;5.03;;;;;;;;;;4984502;28;20229;-62
2021/10/23 04:59:40;;;;;;;7.37;5.67;;;;;;;;;;4983965;28;20263;-62
2021/10/23 05:02:06;;;;;;;5.53;5.03;;;;;;;;;;4984705;28;20186;-61
2021/10/23 05:04:32;;;;;;;6.47;5.37;;;;;;;;;;4972001;28;20182;-61
2021/10/23 05:06:59;;;;;;;7.07;5.63;;;;;;;;;;4987510;28;20195;-62
2021/10/23 05:09:25;;;;;;;6.27;5.60;;;;;;;;;;4984163;28;20544;-62
2021/10/23 05:11:51;;;;;;;6.70;5.73;;;;;;;;;;5004247;28;20198;-61
2021/10/23 05:14:26;;;;;;;6.53;5.87;;;;;;;;;;4993716;28;20721;-61
2021/10/23 05:16:52;;;;;;;6.17;5.57;;;;;;;;;;4981537;28;20237;-62
2021/10/23 05:19:18;;;;;;;7.23;6.23;;;;;;;;;;4972316;28;20210;-63
2021/10/23 05:21:44;;;;;;;9.43;5.37;;;;;;;;;;4987933;28;20183;-62
2021/10/23 05:24:10;;;;;;;6.67;6.00;;;;;;;;;;4972921;28;20184;-61
2021/10/23 05:26:36;;;;;;;6.50;5.90;;;;;;;;;;5002506;28;20168;-62
2021/10/23 05:29:03;;;;;;;6.53;5.50;;;;;;;;;;4981420;28;20180;-62
2021/10/23 05:31:29;;;;;;;7.17;6.03;;;;;;;;;;5000038;28;20852;-63
2021/10/23 05:34:08;;;;;;;7.57;6.27;;;;;;;;;;4983705;28;20235;-61
2021/10/23 05:36:35;;;;;;;6.40;5.80;;;;;;;;;;4984873;28;20171;-62
2021/10/23 05:39:01;;;;;;;6.47;5.60;;;;;;;;;;4977615;28;20176;-61
2021/10/23 05:41:28;;;;;;;7.47;6.20;;;;;;;;;;4988218;28;20632;-62
2021/10/23 05:43:54;;;;;;;7.83;6.27;;;;;;;;;;4983602;28;20184;-63
2021/10/23 05:46:21;;;;;;;6.67;5.93;;;;;;;;;;4983850;28;20299;-63
2021/10/23 05:48:47;;;;;;;6.80;6.10;;;;;;;;;;4986364;28;20681;-62
2021/10/23 05:51:13;;;;;;;7.93;7.13;;;;;;;;;;4979838;28;20265;-61
2021/10/23 05:53:39;;;;;;;8.07;7.23;;;;;;;;;;4972956;28;20194;-62
2021/10/23 05:56:05;;;;;;;10.83;6.57;;;;;;;;;;4977552;28;20246;-65
2021/10/23 05:58:31;;;;;;;8.47;7.17;;;;;;;;;;4986668;28;20195;-61
2021/10/23 06:01:03;;;;;;;8.87;6.40;;;;;;;;;;4972593;28;20322;-62
2021/10/23 06:03:33;;;;;;;8.83;7.13;;;;;;;;;;5015901;28;20190;-63
2021/10/23 06:06:00;;;;;;;9.93;7.17;;;;;;;;;;4984200;28;20634;-62
2021/10/23 06:08:26;;;;;;;11.43;6.53;;;;;;;;;;4976904;28;20180;-62
2021/10/23 06:10:52;;;;;;;8.03;5.90;;;;;;;;;;4984666;28;20703;-62
2021/10/23 06:13:21;;;;;;;11.67;7.40;;;;;;;;;;5004568;28;20182;-61
2021/10/23 06:15:47;;;;;;;10.00;7.03;;;;;;;;;;4993576;28;20187;-61
2021/10/23 06:18:13;;;;;;;12.07;7.40;;;;;;;;;;4976172;28;20226;-62
2021/10/23 06:20:39;;;;;;;9.40;7.07;;;;;;;;;;4981429;28;20184;-62
2021/10/23 06:23:05;;;;;;;14.80;7.53;;;;;;;;;;4983432;28;20187;-63
2021/10/23 06:25:31;;;;;;;10.73;7.57;;;;;;;;;;4973167;28;20176;-61
2021/10/23 06:27:57;;;;;;;10.00;7.30;;;;;;;;;;4984447;28;20178;-62
2021/10/23 06:30:25;;;;;;;9.93;7.67;;;;;;;;;;4986137;28;20245;-62
2021/10/23 06:32:52;;;;;;;10.20;7.87;;;;;;;;;;4994856;28;20227;-61
2021/10/23 06:35:21;;;;;;;11.57;7.87;;;;;;;;;;4979946;28;20180;-62
2021/10/23 06:37:47;;;;;;;13.20;8.40;;;;;;;;;;4976622;28;20199;-62
2021/10/23 06:40:14;;;;;;;11.43;8.40;;;;;;;;;;4982406;28;20179;-62
2021/10/23 06:42:41;;;;;;;11.60;8.47;;;;;;;;;;4978879;28;20191;-63
2021/10/23 06:45:08;;;;;;;15.23;9.23;;;;;;;;;;4978524;28;20339;-62
2021/10/23 06:47:35;;;;;;;12.40;8.70;;;;;;;;;;4977367;28;20261;-62
2021/10/23 06:50:02;;;;;;;16.77;9.87;;;;;;;;;;4968896;28;20191;-61
2021/10/23 06:52:31;;;;;;;14.90;9.30;;;;;;;;;;4980713;28;20185;-62
2021/10/23 06:54:59;;;;;;;14.07;8.93;;;;;;;;;;4974930;28;20279;-61
2021/10/23 06:57:25;;;;;;;16.37;10.20;;;;;;;;;;4977862;28;20207;-63
2021/10/23 06:59:51;;;;;;;13.63;9.87;;;;;;;;;;4976786;28;20575;-63
2021/10/23 07:02:17;;;;;;;14.67;10.77;;;;;;;;;;5001558;28;20179;-62
2021/10/23 07:04:43;;;;;;;15.03;11.00;;;;;;;;;;4981940;28;20187;-61
2021/10/23 07:07:09;;;;;;;14.60;10.50;;;;;;;;;;4976760;28;20222;-61
2021/10/23 07:09:36;;;;;;;17.60;11.60;;;;;;;;;;4985891;28;20239;-62
2021/10/23 07:12:05;;;;;;;17.70;11.87;;;;;;;;;;4980371;28;20187;-61
2021/10/23 07:14:31;;;;;;;15.53;10.90;;;;;;;;;;4969031;28;20187;-62
2021/10/23 07:17:16;;;;;;;19.77;12.20;;;;;;;;;;4984690;28;20230;-62
2021/10/23 07:19:45;;;;;;;19.60;12.63;;;;;;;;;;4989714;28;20178;-61
2021/10/23 07:22:11;;;;;;;21.03;12.43;;;;;;;;;;4977200;28;20195;-62
2021/10/23 07:24:37;;;;;;;17.47;12.40;;;;;;;;;;4987321;28;20218;-61
2021/10/23 07:27:04;;;;;;;17.97;12.37;;;;;;;;;;4989385;28;20574;-61
2021/10/23 07:29:30;;;;;;;19.80;13.40;;;;;;;;;;4974302;28;20184;-61
2021/10/23 07:31:59;;;;;;;18.43;12.03;;;;;;;;;;4977542;28;20273;-62
2021/10/23 07:34:26;;;;;;;18.40;12.07;;;;;;;;;;4983477;28;20287;-62
2021/10/23 07:36:52;;;;;;;22.13;13.87;;;;;;;;;;4980684;28;20203;-62
2021/10/23 07:39:18;;;;;;;20.77;13.53;;;;;;;;;;4979989;28;20584;-62
2021/10/23 07:41:45;;;;;;;20.33;13.70;;;;;;;;;;4986320;28;20184;-62
2021/10/23 07:44:12;;;;;;;20.00;14.17;;;;;;;;;;4977741;28;20197;-61
2021/10/23 07:46:39;;;;;;;21.27;13.33;;;;;;;;;;4983238;28;20186;-62
2021/10/23 07:49:06;;;;;;;17.93;13.47;;;;;;;;;;4977106;28;20188;-62
2021/10/23 07:51:32;;;;;;;23.87;14.27;;;;;;;;;;4976565;28;20180;-61
2021/10/23 07:53:58;;;;;;;17.70;13.27;;;;;;;;;;4985639;28;20615;-61
2021/10/23 07:56:25;;;;;;;22.70;14.93;;;;;;;;;;4983401;28;20205;-62
2021/10/23 07:58:51;;;;;;;20.70;13.73;;;;;;;;;;4983030;28;20293;-61
2021/10/23 08:01:20;;;;;;;21.70;15.03;;;;;;;;;;4971421;28;20183;-62
2021/10/23 08:04:06;;;;;;;24.23;14.63;;;;;;;;;;4982226;28;20867;-61
2021/10/23 08:06:51;;;;;;;24.73;15.57;;;;;;;;;;4982184;28;20179;-62
2021/10/23 08:09:17;;;;;;;23.93;15.73;;;;;;;;;;4980557;28;20202;-62
2021/10/23 08:11:43;;;;;;;21.73;15.30;;;;;;;;;;4982143;28;20186;-61
2021/10/23 08:14:10;;;;;;;25.37;16.00;;;;;;;;;;4989955;28;20174;-62
2021/10/23 08:16:36;;;;;;;21.83;15.37;;;;;;;;;;4988807;28;20180;-62
2021/10/23 08:19:06;;;;;;;26.03;16.63;;;;;;;;;;4980010;28;20318;-62
2021/10/23 08:21:32;;;;;;;25.40;15.97;;;;;;;;;;4991628;28;20186;-62
2021/10/23 08:23:59;;;;;;;24.97;15.23;;;;;;;;;;5006737;28;20594;-62
2021/10/23 08:26:31;;;;;;;27.80;16.50;;;;;;;;;;4990854;28;20254;-62
2021/10/23 08:28:58;;;;;;;24.43;16.10;;;;;;;;;;4976507;28;20180;-61
2021/10/23 08:31:24;;;;;;;25.47;16.03;;;;;;;;;;4981308;28;20229;-61
2021/10/23 08:33:57;;;;;;;24.83;17.23;;;;;;;;;;4994197;28;20183;-64
2021/10/23 08:36:24;;;;;;;25.43;16.07;;;;;;;;;;4988659;28;20253;-61
2021/10/23 08:38:51;;;;;;;23.80;15.70;;;;;;;;;;4981919;28;20210;-61
2021/10/23 08:41:17;;;;;;;27.27;17.77;;;;;;;;;;4985561;28;20476;-61
2021/10/23 08:43:44;;;;;;;29.60;17.63;;;;;;;;;;4984801;28;20361;-63
2021/10/23 08:46:13;;;;;;;24.00;17.67;;;;;;;;;;4985789;28;20187;-62
2021/10/23 08:48:40;;;;;;;35.10;17.33;;;;;;;;;;4982647;28;20179;-63
2021/10/23 08:51:07;;;;;;;24.27;17.87;;;;;;;;;;4983589;28;20537;-62
2021/10/23 08:53:33;;;;;;;26.10;17.60;;;;;;;;;;4987794;28;20189;-63
2021/10/23 08:55:59;;;;;;;30.17;17.50;;;;;;;;;;4983938;28;20195;-63
2021/10/23 08:58:25;;;;;;;30.70;19.23;;;;;;;;;;4984337;28;20192;-61
2021/10/23 09:00:53;;;;;;;24.03;17.23;;;;;;;;;;4984850;28;20670;-62
2021/10/23 09:03:23;;;;;;;25.57;15.70;;;;;;;;;;4987686;28;20175;-62
2021/10/23 09:05:50;;;;;;;25.93;16.77;;;;;;;;;;4983044;28;20533;-62
2021/10/23 09:08:17;;;;;;;28.53;16.57;;;;;;;;;;4981787;28;20543;-64
2021/10/23 09:10:53;;;;;;;26.63;16.07;;;;;;;;;;4987538;28;20261;-63
2021/10/23 09:13:26;;;;;;;24.60;17.27;;;;;;;;;;4975259;28;20188;-62
2021/10/23 09:15:53;;;;;;;24.97;16.20;;;;;;;;;;4976335;28;20187;-63
2021/10/23 09:18:19;;;;;;;29.10;17.43;;;;;;;;;;4985256;28;20265;-63
2021/10/23 09:20:45;;;;;;;24.67;16.37;;;;;;;;;;4979293;28;20249;-62
2021/10/23 09:23:15;;;;;;;28.83;17.67;;;;;;;;;;4996128;28;20240;-63
2021/10/23 09:25:42;;;;;;;23.60;16.60;;;;;;;;;;4980705;28;20246;-62
2021/10/23 09:28:12;;;;;;;27.50;17.93;;;;;;;;;;4982598;28;20390;-64
2021/10/23 09:30:38;;;;;;;28.97;18.77;;;;;;;;;;4978516;28;20210;-62
2021/10/23 09:33:06;;;;;;;28.30;18.20;;;;;;;;;;4969659;28;21188;-61
2021/10/23 09:35:33;;;;;;;25.37;16.87;;;;;;;;;;4980202;28;20238;-61
2021/10/23 09:38:00;;;;;;;25.67;16.87;;;;;;;;;;4988950;28;20207;-63
2021/10/23 09:40:27;;;;;;;25.83;17.87;;;;;;;;;;4984300;28;20179;-61
2021/10/23 09:43:17;;;;;;;26.53;18.40;;;;;;;;;;4977874;28;20257;-63
2021/10/23 09:45:56;;;;;;;27.20;17.70;;;;;;;;;;4987630;28;20619;-64
2021/10/23 09:48:44;;;;;;;24.67;16.40;;;;;;;;;;4982459;28;20183;-58
2021/10/23 09:51:13;;;;;;;31.20;20.67;;;;;;;;;;4976338;28;20213;-62
2021/10/23 09:53:39;;;;;;;27.20;18.63;;;;;;;;;;4983182;28;20214;-63
2021/10/23 09:56:09;;;;;;;31.53;20.20;;;;;;;;;;4998003;28;20681;-62
2021/10/23 09:58:35;;;;;;;28.20;19.57;;;;;;;;;;4983546;28;20214;-63
2021/10/23 10:01:02;;;;;;;35.93;22.93;;;;;;;;;;4984267;28;20171;-63
2021/10/23 10:03:35;;;;;;;30.33;19.20;;;;;;;;;;4985260;28;20190;-62
2021/10/23 10:06:01;;;;;;;29.83;19.97;;;;;;;;;;4973419;28;20234;-62
2021/10/23 10:08:29;;;;;;;29.10;20.57;;;;;;;;;;4983762;28;20692;-63
2021/10/23 10:11:00;;;;;;;32.33;21.57;;;;;;;;;;4975251;28;20297;-62
2021/10/23 10:13:48;;;;;;;31.17;22.33;;;;;;;;;;5003768;28;20190;-63
2021/10/23 10:16:21;;;;;;;28.17;20.67;;;;;;;;;;4983277;28;20217;-62
2021/10/23 10:18:48;;;;;;;38.53;26.30;;;;;;;;;;4974668;28;20218;-63
2021/10/23 10:21:14;;;;;;;39.77;25.13;;;;;;;;;;4982099;28;20171;-62
2021/10/23 10:23:42;;;;;;;36.43;25.13;;;;;;;;;;4969600;28;20180;-63
2021/10/23 10:26:27;;;;;;;37.73;26.17;;;;;;;;;;5009864;28;20178;-64
2021/10/23 10:42:57;;;;;;;41.70;27.13;;;;;;;;;;4982161;28;20183;-62
2021/10/23 10:45:33;;;;;;;33.93;23.83;;;;;;;;;;4998904;28;20229;-63
2021/10/23 10:48:09;;;;;;;34.33;23.47;;;;;;;;;;4984332;28;20297;-62
2021/10/23 10:50:42;;;;;;;30.50;22.37;;;;;;;;;;4976920;28;20183;-63
2021/10/23 10:53:25;;;;;;;37.27;24.50;;;;;;;;;;4979553;28;20242;-64
2021/10/23 10:56:12;;;;;;;33.53;24.07;;;;;;;;;;4985596;28;20222;-64
2021/10/23 10:58:50;;;;;;;36.53;24.43;;;;;;;;;;4991950;28;20337;-64
2021/10/23 11:01:21;;;;;;;36.23;24.57;;;;;;;;;;4983919;28;20692;-64
2021/10/23 11:03:49;;;;;;;34.80;23.93;;;;;;;;;;4985570;28;20548;-62
2021/10/23 11:06:34;;;;;;;35.43;24.23;;;;;;;;;;4982275;28;20176;-63
2021/10/23 11:09:09;;;;;;;34.33;23.77;;;;;;;;;;4979962;28;20213;-66
2021/10/23 11:11:48;;;;;;;33.73;23.97;;;;;;;;;;4976359;28;20182;-62
2021/10/23 11:14:24;;;;;;;35.33;23.27;;;;;;;;;;4982046;28;20210;-63
2021/10/23 11:16:51;;;;;;;28.80;21.97;;;;;;;;;;4987626;28;20296;-64
2021/10/23 11:19:31;;;;;;;33.83;24.37;;;;;;;;;;4988446;28;20225;-63
2021/10/23 11:22:01;;;;;;;53.47;36.07;;;;;;;;;;4989576;28;20183;-63
2021/10/23 11:24:28;;;;;;;63.57;39.07;;;;;;;;;;4984724;28;20211;-58
2021/10/23 11:26:55;;;;;;;69.13;43.70;;;;;;;;;;4987463;28;20183;-64
2021/10/23 11:29:28;;;;;;;82.77;45.93;;;;;;;;;;4981950;28;20176;-64
2021/10/23 11:31:55;;;;;;;74.53;44.93;;;;;;;;;;4985646;28;20222;-64
2021/10/23 11:34:21;;;;;;;70.57;46.00;;;;;;;;;;4985042;28;20207;-65
2021/10/23 11:37:07;;;;;;;70.33;43.37;;;;;;;;;;4965332;28;20543;-64
2021/10/23 11:39:37;;;;;;;56.90;39.50;;;;;;;;;;4986218;28;20278;-64
2021/10/23 11:42:22;;;;;;;65.33;37.53;;;;;;;;;;4969261;28;20595;-63
2021/10/23 11:44:51;;;;;;;57.43;36.93;;;;;;;;;;4988425;28;20196;-65
2021/10/23 11:47:23;;;;;;;58.80;36.73;;;;;;;;;;4964367;28;20187;-64
2021/10/23 11:49:51;;;;;;;48.13;32.03;;;;;;;;;;4977171;28;20565;-64
2021/10/23 11:52:20;;;;;;;48.80;32.17;;;;;;;;;;4971951;28;20210;-64
2021/10/23 11:54:46;;;;;;;47.93;32.77;;;;;;;;;;4964080;28;20192;-64
2021/10/23 11:57:29;;;;;;;44.47;31.17;;;;;;;;;;4984397;28;20660;-65
2021/10/23 12:00:01;;;;;;;43.07;29.27;;;;;;;;;;4957842;28;20557;-63
2021/10/23 12:02:41;;;;;;;42.13;27.67;;;;;;;;;;4986054;28;20184;-64
2021/10/23 12:05:24;;;;;;;38.57;28.57;;;;;;;;;;4965444;28;20277;-64
2021/10/23 12:08:09;;;;;;;35.70;25.30;;;;;;;;;;4984433;28;20230;-64
2021/10/23 12:10:55;;;;;;;34.13;24.23;;;;;;;;;;4994283;28;20186;-63
2021/10/23 12:13:21;;;;;;;34.50;23.20;;;;;;;;;;4980289;28;20532;-63
2021/10/23 12:15:59;;;;;;;30.60;22.20;;;;;;;;;;4966630;28;20175;-64
2021/10/23 12:18:34;;;;;;;31.97;22.17;;;;;;;;;;4984119;28;20270;-63
2021/10/23 12:21:18;;;;;;;21.53;15.77;;;;;;;;;;4982806;28;20265;-62
2021/10/23 12:23:57;;;;;;;15.40;10.47;;;;;;;;;;4992070;28;20187;-63
2021/10/23 12:26:30;;;;;;;22.30;9.17;;;;;;;;;;4991856;28;20634;-62
2021/10/23 12:29:32;;;;;;;25.53;9.30;;;;;;;;;;4967529;28;20199;-63
2021/10/23 12:32:08;;;;;;;19.87;11.57;;;;;;;;;;4965674;28;20591;-63
2021/10/23 12:34:53;;;;;;;32.57;9.93;;;;;;;;;;4964440;28;20194;-63
2021/10/23 12:37:51;;;;;;;20.70;9.33;;;;;;;;;;4972608;28;20269;-64
2021/10/23 12:40:23;;;;;;;21.63;8.63;;;;;;;;;;4968328;28;20679;-64
2021/10/23 12:42:54;;;;;;;19.93;8.13;;;;;;;;;;4969423;28;20183;-63
2021/10/23 12:45:23;;;;;;;26.20;8.47;;;;;;;;;;4969079;28;20589;-63
2021/10/23 12:47:53;;;;;;;17.63;8.00;;;;;;;;;;4964412;28;20203;-64
2021/10/23 12:50:22;;;;;;;14.87;6.87;;;;;;;;;;4963241;28;20281;-64
2021/10/23 12:52:58;;;;;;;15.53;6.83;;;;;;;;;;4970522;28;20195;-63
2021/10/23 12:55:27;;;;;;;14.90;6.33;;;;;;;;;;4969314;28;20218;-63
2021/10/23 12:57:54;;;;;;;11.30;6.67;;;;;;;;;;4971760;28;20286;-63
2021/10/23 13:00:20;;;;;;;9.90;6.37;;;;;;;;;;4985358;28;20186;-64
2021/10/23 13:02:46;;;;;;;10.57;6.50;;;;;;;;;;4962122;28;20179;-64
2021/10/23 13:05:12;;;;;;;9.63;6.57;;;;;;;;;;4972488;28;20713;-64
2021/10/23 13:07:39;;;;;;;13.40;6.73;;;;;;;;;;5001010;28;20193;-63
2021/10/23 13:10:09;;;;;;;15.10;7.20;;;;;;;;;;4987967;28;20244;-63
2021/10/23 13:12:37;;;;;;;10.60;5.70;;;;;;;;;;4977898;28;20290;-64
2021/10/23 13:15:03;;;;;;;7.27;5.87;;;;;;;;;;4971246;28;20194;-63
2021/10/23 13:17:29;;;;;;;9.23;4.63;;;;;;;;;;4968974;28;20219;-65
2021/10/23 13:19:55;;;;;;;8.23;5.17;;;;;;;;;;4958789;28;20176;-64
2021/10/23 13:22:22;;;;;;;11.13;5.13;;;;;;;;;;4998803;28;20261;-63
2021/10/23 13:24:48;;;;;;;9.40;5.03;;;;;;;;;;4971279;28;20458;-64
2021/10/23 13:27:14;;;;;;;7.77;4.27;;;;;;;;;;4989953;28;20681;-64
2021/10/23 13:29:40;;;;;;;10.80;4.97;;;;;;;;;;4996092;28;20574;-64
2021/10/23 13:32:07;;;;;;;11.70;4.10;;;;;;;;;;4993311;28;20771;-63
2021/10/23 13:34:36;;;;;;;7.17;3.97;;;;;;;;;;5002354;28;20237;-63
2021/10/23 13:37:02;;;;;;;7.23;3.57;;;;;;;;;;4996502;28;20191;-63
2021/10/23 13:39:28;;;;;;;8.63;4.27;;;;;;;;;;4977911;28;20478;-64
2021/10/23 13:41:54;;;;;;;5.60;3.93;;;;;;;;;;4984297;28;20170;-64
2021/10/23 13:44:20;;;;;;;7.93;3.77;;;;;;;;;;4977496;28;20294;-63
2021/10/23 13:46:46;;;;;;;6.70;3.57;;;;;;;;;;4971887;28;20736;-63
2021/10/23 13:49:16;;;;;;;4.10;2.87;;;;;;;;;;4972127;28;20183;-63
2021/10/23 13:51:42;;;;;;;7.10;3.93;;;;;;;;;;4992585;28;20185;-63
2021/10/23 13:54:08;;;;;;;4.07;2.43;;;;;;;;;;4973081;28;20289;-63
2021/10/23 13:56:34;;;;;;;6.10;3.10;;;;;;;;;;4970838;28;20256;-63
2021/10/23 13:59:00;;;;;;;4.50;2.70;;;;;;;;;;4999888;28;20692;-63
2021/10/23 14:01:27;;;;;;;5.63;3.20;;;;;;;;;;4974869;28;20183;-63
2021/10/23 14:03:54;;;;;;;4.40;2.80;;;;;;;;;;4995997;28;20185;-63
2021/10/23 14:06:20;;;;;;;5.33;2.40;;;;;;;;;;4989724;28;20175;-63
2021/10/23 14:08:46;;;;;;;4.70;2.77;;;;;;;;;;4984926;28;20171;-62
2021/10/23 14:11:12;;;;;;;7.17;3.10;;;;;;;;;;4985929;28;20171;-63
2021/10/23 14:13:39;;;;;;;3.27;2.47;;;;;;;;;;4988699;28;20573;-63
2021/10/23 14:16:05;;;;;;;3.57;2.40;;;;;;;;;;4970356;28;20188;-63
2021/10/23 14:18:31;;;;;;;7.27;3.03;;;;;;;;;;5008357;28;20197;-63
2021/10/23 14:20:58;;;;;;;5.30;2.50;;;;;;;;;;4975022;28;20764;-63
2021/10/23 14:23:28;;;;;;;7.53;2.63;;;;;;;;;;5005638;28;20182;-63
2021/10/23 14:25:55;;;;;;;3.63;2.63;;;;;;;;;;4969911;28;20175;-64
2021/10/23 14:28:41;;;;;;;4.10;2.53;;;;;;;;;;4989300;28;20581;-63
2021/10/23 14:31:12;;;;;;;4.47;2.30;;;;;;;;;;4966481;28;20203;-63
2021/10/23 14:33:39;;;;;;;3.93;2.40;;;;;;;;;;4999309;28;20249;-63
2021/10/23 14:36:05;;;;;;;3.13;2.13;;;;;;;;;;4992836;28;20192;-63
2021/10/23 14:38:32;;;;;;;3.13;1.70;;;;;;;;;;4992962;28;20573;-63
2021/10/23 14:41:08;;;;;;;3.67;2.00;;;;;;;;;;4992548;28;20174;-62
2021/10/23 14:43:34;;;;;;;3.13;1.90;;;;;;;;;;4971961;28;20235;-64
2021/10/23 14:46:00;;;;;;;2.73;2.17;;;;;;;;;;4983024;28;20175;-63
2021/10/23 14:48:26;;;;;;;5.40;2.20;;;;;;;;;;5012173;28;20185;-62
2021/10/23 14:50:52;;;;;;;2.93;1.93;;;;;;;;;;4994319;28;20229;-62
2021/10/23 14:53:18;;;;;;;2.53;1.50;;;;;;;;;;5006473;28;20167;-62
2021/10/23 14:55:45;;;;;;;8.33;3.10;;;;;;;;;;4985710;28;20175;-66